createdAt,value
2019-03-31T00:02:23.896Z,7.00
2019-03-31T00:06:28.638Z,7.40
2019-03-31T00:10:33.438Z,5.87
2019-03-31T00:14:38.165Z,6.23
2019-03-31T00:18:42.919Z,5.20
2019-03-31T00:22:47.735Z,6.20
2019-03-31T00:26:52.991Z,6.00
2019-03-31T00:30:57.746Z,5.73
2019-03-31T00:35:02.591Z,6.57
2019-03-31T00:39:08.992Z,5.37
2019-03-31T00:43:14.043Z,6.00
2019-03-31T00:47:18.789Z,5.90
2019-03-31T00:51:23.731Z,5.53
2019-03-31T00:55:28.491Z,6.27
2019-03-31T00:59:33.211Z,6.03
2019-03-31T01:03:38.048Z,5.87
2019-03-31T01:07:42.801Z,6.20
2019-03-31T01:11:48.691Z,6.13
2019-03-31T01:15:55.460Z,5.70
2019-03-31T01:20:00.384Z,6.20
2019-03-31T01:24:05.221Z,5.77
2019-03-31T01:28:10.291Z,6.50
2019-03-31T01:32:15.112Z,6.70
2019-03-31T01:36:19.908Z,6.30
2019-03-31T01:40:24.769Z,6.47
2019-03-31T01:44:29.481Z,5.80
2019-03-31T01:48:34.398Z,6.13
2019-03-31T01:52:39.169Z,6.77
2019-03-31T01:56:44.977Z,6.93
2019-03-31T02:00:54.156Z,5.97
2019-03-31T02:04:59.083Z,6.47
2019-03-31T02:09:05.584Z,7.07
2019-03-31T02:13:10.626Z,5.93
2019-03-31T02:17:15.527Z,5.70
2019-03-31T02:21:20.618Z,6.00
2019-03-31T02:25:25.745Z,5.77
2019-03-31T02:29:30.473Z,6.23
2019-03-31T02:33:35.365Z,5.93
2019-03-31T02:37:40.151Z,7.00
2019-03-31T02:41:44.889Z,6.30
2019-03-31T02:45:49.592Z,6.47
2019-03-31T02:49:54.427Z,6.20
2019-03-31T02:53:59.386Z,5.87
2019-03-31T02:58:05.859Z,6.57
2019-03-31T03:02:11.233Z,6.47
2019-03-31T03:06:18.392Z,6.33
2019-03-31T03:10:24.495Z,6.93
2019-03-31T03:14:30.795Z,6.53
2019-03-31T03:18:35.537Z,6.20
2019-03-31T03:22:40.447Z,5.97
2019-03-31T03:26:45.314Z,5.80
2019-03-31T03:30:50.231Z,6.67
2019-03-31T03:34:55.124Z,6.50
2019-03-31T03:38:59.822Z,5.87
2019-03-31T03:43:04.573Z,6.70
2019-03-31T03:47:09.352Z,6.93
2019-03-31T03:51:14.216Z,6.50
2019-03-31T03:55:18.965Z,6.53
2019-03-31T03:59:23.711Z,6.40
2019-03-31T04:03:30.929Z,6.33
2019-03-31T04:07:35.541Z,6.23
2019-03-31T04:11:40.265Z,6.40
2019-03-31T04:15:45.140Z,6.07
2019-03-31T04:19:49.854Z,6.43
2019-03-31T04:23:54.768Z,6.40
2019-03-31T04:27:59.557Z,6.53
2019-03-31T04:32:04.425Z,6.60
2019-03-31T04:36:09.603Z,6.73
2019-03-31T04:40:14.364Z,6.70
2019-03-31T04:44:19.102Z,7.10
2019-03-31T04:48:23.881Z,6.43
2019-03-31T04:52:28.617Z,6.80
2019-03-31T04:56:33.337Z,6.40
2019-03-31T05:00:38.309Z,6.43
2019-03-31T05:04:43.060Z,7.30
2019-03-31T05:08:47.868Z,7.20
2019-03-31T05:12:52.618Z,7.53
2019-03-31T05:16:57.422Z,6.73
2019-03-31T05:21:02.189Z,5.97
2019-03-31T05:25:07.283Z,7.50
2019-03-31T05:29:11.989Z,7.33
2019-03-31T05:33:16.807Z,7.23
2019-03-31T05:37:21.816Z,6.90
2019-03-31T05:41:26.588Z,7.30
2019-03-31T05:45:31.395Z,6.57
2019-03-31T05:49:36.178Z,8.23
2019-03-31T05:53:41.416Z,7.57
2019-03-31T05:57:46.162Z,7.73
2019-03-31T06:01:50.926Z,6.73
2019-03-31T06:05:55.676Z,7.00
2019-03-31T06:10:00.402Z,6.70
2019-03-31T06:14:05.617Z,6.60
2019-03-31T06:18:10.439Z,6.73
2019-03-31T06:22:15.263Z,6.93
2019-03-31T06:26:20.070Z,6.27
2019-03-31T06:30:24.877Z,6.67
2019-03-31T06:34:30.593Z,6.17
2019-03-31T06:38:35.342Z,7.03
2019-03-31T06:42:40.114Z,6.70
2019-03-31T06:46:45.131Z,6.37
2019-03-31T06:50:49.856Z,6.43
2019-03-31T06:54:54.809Z,6.60
2019-03-31T06:58:59.901Z,6.53
2019-03-31T07:03:04.996Z,5.80
2019-03-31T07:07:11.742Z,5.60
2019-03-31T07:11:17.366Z,6.03
2019-03-31T07:15:22.953Z,5.70
2019-03-31T07:19:28.829Z,6.20
2019-03-31T07:23:33.698Z,5.33
2019-03-31T07:27:38.894Z,6.40
2019-03-31T07:31:43.656Z,6.20
2019-03-31T07:35:48.849Z,5.20
2019-03-31T07:39:55.704Z,6.00
2019-03-31T07:44:02.126Z,5.33
2019-03-31T07:48:08.227Z,5.57
2019-03-31T07:52:13.155Z,5.23
2019-03-31T07:56:18.708Z,4.57
2019-03-31T08:00:25.298Z,4.93
2019-03-31T08:04:31.519Z,4.30
2019-03-31T08:08:36.582Z,4.67
2019-03-31T08:12:42.653Z,4.40
2019-03-31T08:16:47.350Z,4.27
2019-03-31T08:20:53.623Z,4.10
2019-03-31T08:25:00.151Z,5.13
2019-03-31T08:29:06.557Z,4.47
2019-03-31T08:33:11.362Z,4.53
2019-03-31T08:37:16.558Z,4.47
2019-03-31T08:41:21.321Z,4.10
2019-03-31T08:45:30.318Z,4.40
2019-03-31T08:49:33.449Z,4.50
2019-03-31T08:53:38.637Z,4.23
2019-03-31T08:57:43.305Z,4.13
2019-03-31T09:01:48.509Z,4.67
2019-03-31T09:06:01.827Z,4.60
2019-03-31T09:10:00.354Z,5.20
2019-03-31T09:14:06.482Z,4.40
2019-03-31T09:18:11.349Z,4.10
2019-03-31T09:22:16.124Z,4.53
2019-03-31T09:26:21.102Z,4.50
2019-03-31T09:30:25.826Z,4.17
2019-03-31T09:34:31.421Z,3.80
2019-03-31T09:38:36.724Z,4.20
2019-03-31T09:42:41.488Z,4.53
2019-03-31T09:46:46.248Z,4.20
2019-03-31T09:50:51.394Z,4.47
2019-03-31T09:54:56.293Z,4.67
2019-03-31T09:59:01.411Z,4.63
2019-03-31T10:03:07.874Z,5.13
2019-03-31T10:07:12.660Z,3.53
2019-03-31T10:11:20.844Z,4.13
2019-03-31T10:15:26.074Z,4.50
2019-03-31T10:19:31.204Z,3.83
2019-03-31T10:23:36.010Z,4.33
2019-03-31T10:27:40.757Z,4.30
2019-03-31T10:31:46.256Z,3.60
2019-03-31T10:35:51.009Z,3.77
2019-03-31T10:39:55.743Z,3.87
2019-03-31T10:44:00.499Z,3.70
2019-03-31T10:48:19.229Z,3.37
2019-03-31T10:52:12.023Z,2.83
2019-03-31T10:56:16.932Z,3.17
2019-03-31T11:00:38.023Z,3.70
2019-03-31T11:04:42.758Z,3.72
2019-03-31T11:08:47.911Z,4.03
2019-03-31T11:12:52.964Z,3.87
2019-03-31T11:16:57.720Z,4.00
2019-03-31T11:21:07.728Z,3.87
2019-03-31T11:25:20.783Z,4.83
2019-03-31T11:29:19.245Z,3.77
2019-03-31T11:33:23.996Z,3.97
2019-03-31T11:37:29.097Z,3.73
2019-03-31T11:41:33.873Z,4.15
2019-03-31T11:45:38.727Z,4.17
2019-03-31T11:49:43.679Z,3.67
2019-03-31T11:53:48.468Z,4.50
2019-03-31T11:57:53.283Z,3.83
2019-03-31T12:01:58.131Z,4.07
2019-03-31T12:06:03.063Z,3.12
2019-03-31T12:10:08.762Z,3.80
2019-03-31T12:14:13.602Z,3.72
2019-03-31T12:18:18.776Z,3.20
2019-03-31T12:22:23.706Z,3.60
2019-03-31T12:26:28.653Z,2.92
2019-03-31T12:30:33.449Z,2.80
2019-03-31T12:34:38.262Z,3.72
2019-03-31T12:38:44.360Z,3.02
2019-03-31T12:42:49.231Z,3.37
2019-03-31T12:46:56.106Z,3.17
2019-03-31T12:51:01.497Z,3.02
2019-03-31T12:55:06.877Z,2.92
2019-03-31T12:59:11.715Z,2.80
2019-03-31T13:03:16.677Z,2.90
2019-03-31T13:07:21.585Z,3.00
2019-03-31T13:11:26.298Z,2.77
2019-03-31T13:15:33.162Z,3.10
2019-03-31T13:19:38.027Z,3.10
2019-03-31T13:23:42.782Z,3.15
2019-03-31T13:27:48.933Z,2.58
2019-03-31T13:31:53.686Z,2.83
2019-03-31T13:35:58.462Z,2.95
2019-03-31T13:40:03.207Z,3.10
2019-03-31T13:44:07.945Z,2.80
2019-03-31T13:48:14.604Z,2.58
2019-03-31T13:52:20.361Z,2.85
2019-03-31T13:56:25.219Z,2.67
2019-03-31T14:00:41.191Z,2.75
2019-03-31T14:04:51.728Z,2.67
2019-03-31T14:08:55.064Z,2.67
2019-03-31T14:13:00.272Z,2.52
2019-03-31T14:17:05.072Z,2.22
2019-03-31T14:21:10.155Z,3.02
2019-03-31T14:25:14.940Z,2.52
2019-03-31T14:29:19.756Z,2.75
2019-03-31T14:33:24.985Z,3.47
2019-03-31T14:37:30.058Z,2.67
2019-03-31T14:41:35.241Z,3.52
2019-03-31T14:45:40.521Z,2.98
2019-03-31T14:49:46.298Z,4.05
2019-03-31T14:53:53.414Z,3.75
2019-03-31T14:57:58.653Z,2.60
2019-03-31T15:02:03.466Z,3.10
2019-03-31T15:06:08.439Z,3.40
2019-03-31T15:10:13.231Z,3.25
2019-03-31T15:14:18.266Z,3.45
2019-03-31T15:18:23.471Z,3.60
2019-03-31T15:22:29.566Z,2.87
2019-03-31T15:26:34.329Z,3.30
2019-03-31T15:30:39.348Z,2.98
2019-03-31T15:34:44.184Z,2.70
2019-03-31T15:38:48.989Z,2.85
2019-03-31T15:42:53.806Z,2.50
2019-03-31T15:46:58.770Z,2.80
2019-03-31T15:51:03.471Z,2.70
2019-03-31T15:55:08.801Z,3.10
2019-03-31T15:59:13.578Z,3.10
2019-03-31T16:03:18.580Z,2.95
2019-03-31T16:07:23.486Z,3.05
2019-03-31T16:11:27.703Z,3.70
2019-03-31T16:15:32.218Z,3.70
2019-03-31T16:19:36.903Z,3.40
2019-03-31T16:23:41.105Z,4.35
2019-03-31T16:27:45.493Z,4.15
2019-03-31T16:31:49.775Z,3.87
2019-03-31T16:35:55.176Z,3.30
2019-03-31T16:39:59.400Z,3.58
2019-03-31T16:44:04.016Z,2.90
2019-03-31T16:48:08.761Z,3.17
2019-03-31T16:52:12.954Z,3.47
2019-03-31T16:56:19.199Z,2.95
2019-03-31T17:00:25.751Z,3.10
2019-03-31T17:04:30.404Z,2.77
2019-03-31T17:08:36.029Z,3.17
2019-03-31T17:12:40.245Z,2.80
2019-03-31T17:16:44.457Z,3.08
2019-03-31T17:20:50.934Z,3.08
2019-03-31T17:24:56.724Z,2.90
2019-03-31T17:29:03.100Z,3.03
2019-03-31T17:33:07.281Z,3.45
2019-03-31T17:37:11.864Z,3.27
2019-03-31T17:41:16.124Z,2.40
2019-03-31T17:45:20.354Z,3.42
2019-03-31T17:49:26.567Z,3.42
2019-03-31T17:53:30.817Z,3.83
2019-03-31T17:57:35.161Z,3.67
2019-03-31T18:01:39.329Z,3.52
2019-03-31T18:05:43.539Z,3.57
2019-03-31T18:09:47.790Z,3.47
2019-03-31T18:13:51.990Z,4.13
2019-03-31T18:17:56.292Z,3.57
2019-03-31T18:22:00.511Z,3.90
2019-03-31T18:26:07.535Z,4.10
2019-03-31T18:30:14.168Z,3.87
2019-03-31T18:34:18.466Z,4.03
2019-03-31T18:38:23.444Z,3.97
2019-03-31T18:42:28.265Z,4.27
2019-03-31T18:46:33.663Z,3.67
2019-03-31T18:50:38.631Z,4.30
2019-03-31T18:55:03.694Z,3.70
2019-03-31T18:59:26.876Z,4.70
2019-03-31T19:03:50.131Z,3.97
2019-03-31T19:08:17.017Z,4.13
2019-03-31T19:12:39.578Z,3.83
2019-03-31T19:17:09.568Z,3.93
2019-03-31T19:21:24.280Z,4.27
2019-03-31T19:25:54.054Z,4.27
2019-03-31T19:30:20.818Z,4.73
2019-03-31T19:34:38.114Z,4.20
2019-03-31T19:39:03.685Z,4.33
2019-03-31T19:43:27.183Z,4.40
2019-03-31T19:47:53.242Z,4.63
2019-03-31T19:52:15.500Z,4.10
2019-03-31T19:56:42.115Z,4.33
2019-03-31T20:01:12.719Z,4.80
2019-03-31T20:05:28.076Z,4.43
2019-03-31T20:09:44.556Z,4.63
2019-03-31T20:14:07.914Z,4.33
2019-03-31T20:18:49.812Z,4.30
2019-03-31T20:23:17.033Z,4.60
2019-03-31T20:27:46.631Z,4.37
2019-03-31T20:32:22.522Z,4.70
2019-03-31T20:36:47.219Z,4.23
2019-03-31T20:41:03.612Z,4.93
2019-03-31T20:45:08.268Z,5.23
2019-03-31T20:49:13.612Z,5.20
2019-03-31T20:53:18.243Z,5.30
2019-03-31T20:57:23.908Z,6.37
2019-03-31T21:01:29.336Z,5.77
2019-03-31T21:05:36.108Z,6.40
2019-03-31T21:09:45.137Z,6.63
2019-03-31T21:13:47.208Z,6.67
2019-03-31T21:17:51.975Z,6.63
2019-03-31T21:21:56.199Z,7.20
2019-03-31T21:26:00.929Z,6.63
2019-03-31T21:30:06.034Z,6.23
2019-03-31T21:34:10.284Z,7.37
2019-03-31T21:38:14.740Z,6.97
2019-03-31T21:42:19.074Z,7.03
2019-03-31T21:46:23.259Z,7.33
2019-03-31T21:50:27.519Z,7.07
2019-03-31T21:54:31.797Z,7.33
2019-03-31T21:58:36.036Z,7.67
2019-03-31T22:02:40.316Z,7.70
2019-03-31T22:06:44.671Z,7.10
2019-03-31T22:10:48.896Z,6.20
2019-03-31T22:14:53.122Z,7.53
2019-03-31T22:18:57.324Z,8.27
2019-03-31T22:23:01.623Z,7.40
2019-03-31T22:27:05.866Z,7.73
2019-03-31T22:31:10.140Z,7.97
2019-03-31T22:35:14.471Z,7.40
2019-03-31T22:39:18.651Z,6.63
2019-03-31T22:43:22.894Z,7.57
2019-03-31T22:47:27.183Z,7.97
2019-03-31T22:51:32.568Z,8.47
2019-03-31T22:55:36.801Z,8.10
2019-03-31T22:59:41.587Z,8.33
2019-03-31T23:03:45.796Z,7.00
2019-03-31T23:07:50.071Z,7.87
2019-03-31T23:11:54.483Z,7.80
2019-03-31T23:15:59.024Z,8.27
2019-03-31T23:20:03.338Z,7.83
2019-03-31T23:24:08.679Z,7.00
2019-03-31T23:28:12.993Z,7.83
2019-03-31T23:32:17.764Z,7.40
2019-03-31T23:36:22.888Z,8.00
2019-03-31T23:40:27.516Z,7.70
2019-03-31T23:44:31.823Z,8.37
2019-03-31T23:48:36.226Z,7.90
2019-03-31T23:52:41.329Z,8.00
2019-03-31T23:56:45.567Z,8.47
